createdAt,value
2023-04-24T00:00:53.436Z,12.00
2023-04-24T00:06:58.430Z,12.00
2023-04-24T00:13:01.117Z,12.10
2023-04-24T00:19:03.502Z,11.90
2023-04-24T00:25:06.605Z,11.90
2023-04-24T00:31:09.869Z,11.90
2023-04-24T00:37:12.732Z,11.80
2023-04-24T00:43:14.908Z,11.80
2023-04-24T00:49:17.380Z,11.80
2023-04-24T00:55:19.591Z,11.80
2023-04-24T01:01:22.915Z,11.70
2023-04-24T01:07:26.762Z,11.70
2023-04-24T01:13:29.308Z,11.50
2023-04-24T01:19:31.916Z,11.30
2023-04-24T01:25:34.457Z,11.20
2023-04-24T01:31:37.098Z,10.90
2023-04-24T01:37:39.607Z,10.90
2023-04-24T01:43:41.981Z,10.90
2023-04-24T01:49:44.554Z,10.80
2023-04-24T01:55:48.485Z,10.80
2023-04-24T02:01:50.972Z,10.70
2023-04-24T02:07:55.930Z,10.70
2023-04-24T02:13:58.264Z,10.70
2023-04-24T02:20:00.635Z,10.50
2023-04-24T02:26:02.812Z,10.40
2023-04-24T02:32:08.013Z,10.20
2023-04-24T02:38:10.085Z,10.10
2023-04-24T02:44:12.293Z,10.10
2023-04-24T02:50:15.302Z,9.80
2023-04-24T02:56:17.632Z,9.50
2023-04-24T03:02:20.139Z,9.40
2023-04-24T03:08:22.339Z,9.50
2023-04-24T03:14:24.478Z,9.60
2023-04-24T03:20:26.931Z,9.40
2023-04-24T03:26:31.834Z,9.40
2023-04-24T03:32:47.755Z,9.40
2023-04-24T03:38:54.654Z,9.50
2023-04-24T03:45:05.849Z,9.60
2023-04-24T03:51:11.062Z,9.80
2023-04-24T03:57:16.432Z,10.00
2023-04-24T04:03:30.885Z,10.10
2023-04-24T04:09:34.378Z,10.30
2023-04-24T04:15:36.934Z,10.30
2023-04-24T04:21:39.174Z,10.50
2023-04-24T04:27:54.918Z,10.60
2023-04-24T04:33:58.161Z,10.70
2023-04-24T04:40:01.109Z,10.80
2023-04-24T04:46:09.628Z,10.80
2023-04-24T04:52:31.138Z,10.90
2023-04-24T04:58:43.364Z,11.00
2023-04-24T05:04:48.941Z,11.00
2023-04-24T05:10:51.573Z,11.10
2023-04-24T05:16:54.663Z,11.00
2023-04-24T05:23:00.087Z,11.10
2023-04-24T05:29:04.267Z,11.20
2023-04-24T05:35:07.622Z,11.50
2023-04-24T05:41:10.046Z,11.70
2023-04-24T05:47:12.213Z,11.80
2023-04-24T05:53:14.272Z,12.20
2023-04-24T05:59:16.655Z,12.30
2023-04-24T06:05:18.895Z,12.40
2023-04-24T06:11:21.157Z,12.40
2023-04-24T06:17:23.882Z,12.30
2023-04-24T06:23:26.727Z,12.40
2023-04-24T06:29:29.876Z,12.50
2023-04-24T06:35:32.339Z,12.60
2023-04-24T06:41:34.677Z,12.80
2023-04-24T06:47:37.320Z,12.90
2023-04-24T06:53:39.525Z,11.80
2023-04-24T06:59:41.890Z,11.30
2023-04-24T07:05:44.472Z,11.30
2023-04-24T07:11:47.325Z,11.50
2023-04-24T07:17:49.685Z,12.00
2023-04-24T07:23:52.215Z,12.40
2023-04-24T07:29:54.861Z,12.80
2023-04-24T07:35:57.615Z,12.60
2023-04-24T07:42:00.530Z,12.90
2023-04-24T07:48:03.452Z,13.70
2023-04-24T07:54:09.622Z,13.70
2023-04-24T08:00:12.785Z,13.70
2023-04-24T08:06:15.637Z,13.50
2023-04-24T08:12:18.147Z,13.20
2023-04-24T08:18:20.837Z,13.40
2023-04-24T08:24:24.096Z,13.60
2023-04-24T08:30:26.437Z,13.80
2023-04-24T08:36:43.607Z,13.50
2023-04-24T08:42:50.714Z,13.20
2023-04-24T08:49:18.342Z,13.40
2023-04-24T08:55:21.633Z,13.20
2023-04-24T09:01:26.106Z,13.80
2023-04-24T09:07:31.383Z,13.80
2023-04-24T09:13:34.464Z,13.70
2023-04-24T09:19:36.237Z,13.60
2023-04-24T09:25:38.005Z,13.60
2023-04-24T09:31:39.895Z,14.30
2023-04-24T09:37:46.971Z,14.30
2023-04-24T09:43:48.764Z,13.80
2023-04-24T09:49:50.665Z,13.50
2023-04-24T09:55:54.042Z,13.20
2023-04-24T10:01:56.321Z,13.10
2023-04-24T10:08:04.216Z,13.00
2023-04-24T10:14:06.480Z,12.90
2023-04-24T10:20:09.381Z,13.10
2023-04-24T10:26:11.387Z,13.20
2023-04-24T10:32:13.390Z,13.50
2023-04-24T10:38:17.853Z,13.60
2023-04-24T10:44:23.056Z,13.90
2023-04-24T10:50:26.813Z,13.90
2023-04-24T10:56:28.607Z,13.90
2023-04-24T11:02:51.791Z,13.70
2023-04-24T11:09:10.173Z,13.70
2023-04-24T11:15:11.867Z,14.00
2023-04-24T11:21:26.106Z,13.80
2023-04-24T11:27:31.584Z,13.80
2023-04-24T11:33:33.422Z,13.70
2023-04-24T11:39:38.546Z,14.00
2023-04-24T11:45:49.552Z,14.20
2023-04-24T11:51:54.008Z,13.90
2023-04-24T11:57:59.519Z,13.60
2023-04-24T12:04:02.137Z,13.60
2023-04-24T12:10:06.724Z,13.40
2023-04-24T12:16:08.734Z,13.30
2023-04-24T12:22:10.735Z,13.70
2023-04-24T12:28:14.053Z,14.50
2023-04-24T12:34:23.677Z,13.90
2023-04-24T12:40:26.762Z,12.50
2023-04-24T12:46:28.576Z,11.70
2023-04-24T12:52:31.235Z,11.40
2023-04-24T12:58:33.044Z,11.30
2023-04-24T13:04:34.897Z,11.10
2023-04-24T13:10:36.887Z,10.90
2023-04-24T13:16:38.877Z,10.90
2023-04-24T13:22:40.932Z,11.00
2023-04-24T13:28:42.710Z,11.30
2023-04-24T13:34:44.701Z,11.60
2023-04-24T13:49:06.784Z,11.40
2023-04-24T13:55:09.046Z,10.90
2023-04-24T14:01:11.571Z,10.60
2023-04-24T14:07:15.743Z,10.50
2023-04-24T14:13:17.625Z,10.40
2023-04-24T14:19:22.322Z,10.50
2023-04-24T14:25:24.166Z,10.40
2023-04-24T14:31:28.212Z,10.10
2023-04-24T14:37:30.147Z,10.10
2023-04-24T14:43:31.950Z,10.30
2023-04-24T14:49:33.851Z,10.20
2023-04-24T14:55:39.347Z,10.10
2023-04-24T15:01:41.127Z,10.30
2023-04-24T15:07:42.994Z,10.80
2023-04-24T15:13:49.182Z,11.00
2023-04-24T15:19:51.163Z,10.60
2023-04-24T15:25:52.960Z,10.30
2023-04-24T15:31:54.896Z,10.30
2023-04-24T15:37:56.957Z,10.40
2023-04-24T15:43:59.008Z,10.50
2023-04-24T15:50:01.492Z,10.60
2023-04-24T15:56:03.797Z,10.40
2023-04-24T16:02:05.801Z,10.30
2023-04-24T16:08:07.937Z,10.60
2023-04-24T16:14:10.792Z,11.30
2023-04-24T16:20:13.983Z,11.40
2023-04-24T16:26:16.063Z,11.10
2023-04-24T16:32:18.052Z,10.80
2023-04-24T16:38:20.013Z,10.60
2023-04-24T16:44:21.894Z,10.40
2023-04-24T16:50:23.782Z,10.30
2023-04-24T16:56:25.600Z,10.20
2023-04-24T17:02:28.940Z,10.10
2023-04-24T17:08:32.787Z,10.00
2023-04-24T17:14:34.639Z,10.00
2023-04-24T17:20:36.459Z,10.00
2023-04-24T17:26:38.302Z,9.90
2023-04-24T17:32:40.269Z,9.90
2023-04-24T17:38:42.194Z,9.90
2023-04-24T17:44:44.126Z,9.90
2023-04-24T17:50:53.998Z,9.80
2023-04-24T17:56:59.539Z,9.80
2023-04-24T18:03:03.821Z,9.70
2023-04-24T18:09:05.970Z,9.80
2023-04-24T18:21:14.687Z,9.70
2023-04-24T18:27:16.544Z,9.70
2023-04-24T18:33:19.093Z,9.50
2023-04-24T18:39:22.985Z,9.40
2023-04-24T18:45:24.997Z,9.40
2023-04-24T18:51:26.852Z,9.30
2023-04-24T18:57:28.639Z,9.20
2023-04-24T19:03:42.565Z,9.10
2023-04-24T19:09:45.996Z,9.20
2023-04-24T19:15:48.970Z,9.10
2023-04-24T19:21:54.044Z,9.00
2023-04-24T19:34:31.050Z,9.00
2023-04-24T19:40:33.533Z,8.90
2023-04-24T19:46:35.872Z,8.80
2023-04-24T19:52:40.668Z,8.80
2023-04-24T19:58:54.022Z,8.70
2023-04-24T20:05:08.522Z,8.50
2023-04-24T20:11:11.111Z,8.40
2023-04-24T20:17:13.620Z,8.30
2023-04-24T20:23:25.170Z,8.20
2023-04-24T20:29:29.989Z,8.40
2023-04-24T20:35:35.588Z,8.50
2023-04-24T20:41:38.884Z,8.50
2023-04-24T20:48:36.082Z,8.40
2023-04-24T21:02:22.361Z,8.60
2023-04-24T21:16:05.678Z,8.50
2023-04-24T21:35:56.204Z,8.20
2023-04-24T21:49:49.335Z,8.30
2023-04-24T22:02:57.232Z,7.90
2023-04-24T22:08:59.736Z,7.80
2023-04-24T22:15:01.535Z,7.70
2023-04-24T22:21:04.333Z,7.60
2023-04-24T22:27:06.152Z,7.60
2023-04-24T22:33:08.483Z,7.50
2023-04-24T22:39:12.853Z,7.40
2023-04-24T22:45:15.692Z,7.30
2023-04-24T22:51:18.256Z,7.30
2023-04-24T22:57:20.130Z,7.30
2023-04-24T23:03:22.140Z,7.20
2023-04-24T23:09:24.088Z,7.00
2023-04-24T23:15:25.945Z,7.10
2023-04-24T23:21:28.628Z,6.90
2023-04-24T23:27:30.557Z,6.70
2023-04-24T23:33:32.410Z,6.60
2023-04-24T23:39:34.317Z,6.50
2023-04-24T23:45:37.042Z,6.30
2023-04-24T23:51:39.092Z,6.20
2023-04-24T23:57:40.901Z,6.00
